createdAt,value
2023-03-03T00:00:55.480Z,100.00
2023-03-03T00:03:24.489Z,100.00
2023-03-03T00:05:52.347Z,100.00
2023-03-03T00:08:20.536Z,100.00
2023-03-03T00:10:47.435Z,100.00
2023-03-03T00:13:25.563Z,100.00
2023-03-03T00:15:53.091Z,100.00
2023-03-03T00:18:33.624Z,100.00
2023-03-03T00:21:02.723Z,100.00
2023-03-03T00:23:37.527Z,100.00
2023-03-03T00:26:19.618Z,100.00
2023-03-03T00:28:51.856Z,100.00
2023-03-03T00:31:29.500Z,100.00
2023-03-03T00:34:17.034Z,100.00
2023-03-03T00:36:44.025Z,100.00
2023-03-03T00:39:38.890Z,100.00
2023-03-03T00:42:18.830Z,100.00
2023-03-03T00:44:57.040Z,100.00
2023-03-03T00:47:36.772Z,100.00
2023-03-03T00:50:06.263Z,100.00
2023-03-03T00:52:41.292Z,100.00
2023-03-03T00:55:08.785Z,100.00
2023-03-03T00:57:35.266Z,100.00
2023-03-03T01:00:01.803Z,100.00
2023-03-03T01:02:28.337Z,100.00
2023-03-03T01:04:57.753Z,100.00
2023-03-03T01:07:24.237Z,100.00
2023-03-03T01:09:50.836Z,100.00
2023-03-03T01:12:17.510Z,100.00
2023-03-03T01:14:45.405Z,100.00
2023-03-03T01:17:12.074Z,100.00
2023-03-03T01:19:38.514Z,100.00
2023-03-03T01:22:05.028Z,100.00
2023-03-03T01:24:31.503Z,100.00
2023-03-03T01:26:57.998Z,100.00
2023-03-03T01:29:24.461Z,100.00
2023-03-03T01:31:50.937Z,100.00
2023-03-03T01:34:17.441Z,100.00
2023-03-03T01:36:43.911Z,100.00
2023-03-03T01:39:12.205Z,100.00
2023-03-03T01:41:38.781Z,100.00
2023-03-03T01:44:05.438Z,100.00
2023-03-03T01:46:36.091Z,100.00
2023-03-03T01:49:10.968Z,100.00
2023-03-03T01:51:48.826Z,100.00
2023-03-03T01:54:33.309Z,100.00
2023-03-03T01:57:03.530Z,100.00
2023-03-03T01:59:37.842Z,100.00
2023-03-03T02:02:05.284Z,100.00
2023-03-03T02:04:32.288Z,100.00
2023-03-03T02:07:04.290Z,100.00
2023-03-03T02:09:54.546Z,100.00
2023-03-03T02:12:26.032Z,100.00
2023-03-03T02:14:52.528Z,100.00
2023-03-03T02:17:19.270Z,100.00
2023-03-03T02:20:12.565Z,100.00
2023-03-03T02:22:47.794Z,100.00
2023-03-03T02:25:26.112Z,100.00
2023-03-03T02:27:52.956Z,100.00
2023-03-03T02:30:23.647Z,100.00
2023-03-03T02:32:50.143Z,100.00
2023-03-03T02:35:30.956Z,100.00
2023-03-03T02:38:09.778Z,100.00
2023-03-03T02:40:43.139Z,100.00
2023-03-03T02:43:11.874Z,100.00
2023-03-03T02:45:45.571Z,100.00
2023-03-03T02:48:12.378Z,100.00
2023-03-03T02:50:39.046Z,100.00
2023-03-03T02:53:05.548Z,100.00
2023-03-03T02:55:32.041Z,100.00
2023-03-03T02:57:58.492Z,100.00
2023-03-03T03:00:24.987Z,100.00
2023-03-03T03:02:51.451Z,100.00
2023-03-03T03:05:18.070Z,100.00
2023-03-03T03:07:44.550Z,100.00
2023-03-03T03:10:11.268Z,100.00
2023-03-03T03:12:38.284Z,100.00
2023-03-03T03:15:05.282Z,100.00
2023-03-03T03:17:31.733Z,100.00
2023-03-03T03:19:58.336Z,100.00
2023-03-03T03:22:24.874Z,100.00
2023-03-03T03:24:51.311Z,100.00
2023-03-03T03:27:19.250Z,100.00
2023-03-03T03:29:45.744Z,100.00
2023-03-03T03:32:12.903Z,100.00
2023-03-03T03:34:39.399Z,100.00
2023-03-03T03:37:06.586Z,100.00
2023-03-03T03:39:33.131Z,100.00
2023-03-03T03:41:59.584Z,100.00
2023-03-03T03:44:26.185Z,100.00
2023-03-03T03:46:52.683Z,100.00
2023-03-03T03:49:20.842Z,100.00
2023-03-03T03:51:47.472Z,100.00
2023-03-03T03:54:13.925Z,100.00
2023-03-03T03:56:40.415Z,100.00
2023-03-03T03:59:07.820Z,100.00
2023-03-03T04:01:34.359Z,100.00
2023-03-03T04:04:00.813Z,100.00
2023-03-03T04:06:27.313Z,100.00
2023-03-03T04:08:55.243Z,100.00
2023-03-03T04:11:21.711Z,100.00
2023-03-03T04:13:48.573Z,100.00
2023-03-03T04:16:15.127Z,100.00
2023-03-03T04:18:44.363Z,100.00
2023-03-03T04:21:13.891Z,100.00
2023-03-03T04:23:40.937Z,100.00
2023-03-03T04:26:08.306Z,100.00
2023-03-03T04:28:34.885Z,100.00
2023-03-03T04:31:01.443Z,100.00
2023-03-03T04:33:27.930Z,100.00
2023-03-03T04:35:54.506Z,100.00
2023-03-03T04:38:21.166Z,100.00
2023-03-03T04:40:47.618Z,100.00
2023-03-03T04:43:14.603Z,100.00
2023-03-03T04:45:41.201Z,100.00
2023-03-03T04:48:07.983Z,100.00
2023-03-03T04:50:34.897Z,100.00
2023-03-03T04:53:01.526Z,100.00
2023-03-03T04:55:28.055Z,100.00
2023-03-03T04:57:54.593Z,100.00
2023-03-03T05:00:21.325Z,100.00
2023-03-03T05:02:48.854Z,100.00
2023-03-03T05:05:15.412Z,100.00
2023-03-03T05:07:41.979Z,100.00
2023-03-03T05:10:09.058Z,100.00
2023-03-03T05:12:35.538Z,100.00
2023-03-03T05:15:02.070Z,100.00
2023-03-03T05:17:28.611Z,100.00
2023-03-03T05:19:57.286Z,100.00
2023-03-03T05:22:24.668Z,100.00
2023-03-03T05:24:51.610Z,100.00
2023-03-03T05:27:18.153Z,100.00
2023-03-03T05:29:44.917Z,100.00
2023-03-03T05:32:11.417Z,100.00
2023-03-03T05:34:38.012Z,100.00
2023-03-03T05:37:06.781Z,100.00
2023-03-03T05:39:34.141Z,100.00
2023-03-03T05:42:00.986Z,100.00
2023-03-03T05:44:28.009Z,100.00
2023-03-03T05:46:56.580Z,100.00
2023-03-03T05:49:23.361Z,100.00
2023-03-03T05:51:49.819Z,100.00
2023-03-03T05:54:16.285Z,100.00
2023-03-03T05:56:42.753Z,100.00
2023-03-03T05:59:09.631Z,100.00
2023-03-03T06:01:36.184Z,100.00
2023-03-03T06:04:02.654Z,100.00
2023-03-03T06:06:29.322Z,100.00
2023-03-03T06:08:57.291Z,100.00
2023-03-03T06:11:24.060Z,100.00
2023-03-03T06:13:50.861Z,100.00
2023-03-03T06:16:18.136Z,100.00
2023-03-03T06:18:44.749Z,100.00
2023-03-03T06:21:11.192Z,100.00
2023-03-03T06:23:37.687Z,100.00
2023-03-03T06:26:04.272Z,100.00
2023-03-03T06:28:30.728Z,100.00
2023-03-03T06:30:57.983Z,100.00
2023-03-03T06:33:24.469Z,100.00
2023-03-03T06:35:51.826Z,100.00
2023-03-03T06:38:19.127Z,100.00
2023-03-03T06:40:46.796Z,100.00
2023-03-03T06:43:14.224Z,100.00
2023-03-03T06:45:40.808Z,100.00
2023-03-03T06:48:07.399Z,100.00
2023-03-03T06:50:34.924Z,100.00
2023-03-03T06:53:15.903Z,100.00
2023-03-03T06:55:44.819Z,100.00
2023-03-03T06:58:17.111Z,100.00
2023-03-03T07:00:50.818Z,100.00
2023-03-03T07:03:21.766Z,100.00
2023-03-03T07:05:48.280Z,100.00
2023-03-03T07:08:21.448Z,100.00
2023-03-03T07:10:49.345Z,100.00
2023-03-03T07:13:23.647Z,100.00
2023-03-03T07:15:52.423Z,100.00
2023-03-03T07:18:34.348Z,100.00
2023-03-03T07:21:17.224Z,100.00
2023-03-03T07:23:45.251Z,100.00
2023-03-03T07:26:14.243Z,100.00
2023-03-03T07:29:01.651Z,100.00
2023-03-03T07:31:37.025Z,100.00
2023-03-03T07:34:23.359Z,100.00
2023-03-03T07:36:53.696Z,100.00
2023-03-03T07:39:29.526Z,100.00
2023-03-03T07:42:09.536Z,100.00
2023-03-03T07:44:37.513Z,100.00
2023-03-03T07:47:26.007Z,100.00
2023-03-03T07:49:55.777Z,100.00
2023-03-03T07:52:27.512Z,100.00
2023-03-03T07:54:56.726Z,100.00
2023-03-03T07:57:36.876Z,100.00
2023-03-03T08:00:16.634Z,100.00
2023-03-03T08:02:58.551Z,100.00
2023-03-03T08:05:26.547Z,100.00
2023-03-03T08:07:54.508Z,100.00
2023-03-03T08:10:50.765Z,100.00
2023-03-03T08:13:28.352Z,100.00
2023-03-03T08:16:15.091Z,100.00
2023-03-03T08:18:50.495Z,100.00
2023-03-03T08:21:21.406Z,100.00
2023-03-03T08:23:51.847Z,100.00
2023-03-03T08:26:19.935Z,100.00
2023-03-03T08:28:47.264Z,100.00
2023-03-03T08:31:24.930Z,100.00
2023-03-03T08:33:58.770Z,100.00
2023-03-03T08:36:25.335Z,100.00
2023-03-03T08:38:52.658Z,100.00
2023-03-03T08:41:19.132Z,100.00
2023-03-03T08:43:45.720Z,100.00
2023-03-03T08:46:12.368Z,100.00
2023-03-03T08:48:39.023Z,100.00
2023-03-03T08:51:06.654Z,100.00
2023-03-03T08:53:36.458Z,100.00
2023-03-03T08:56:03.641Z,100.00
2023-03-03T08:58:35.582Z,100.00
2023-03-03T09:01:04.108Z,100.00
2023-03-03T09:03:30.830Z,100.00
2023-03-03T09:05:57.358Z,100.00
2023-03-03T09:08:23.864Z,100.00
2023-03-03T09:10:50.509Z,100.00
2023-03-03T09:13:20.162Z,100.00
2023-03-03T09:15:47.591Z,100.00
2023-03-03T09:18:19.929Z,100.00
2023-03-03T09:20:51.547Z,100.00
2023-03-03T09:23:24.209Z,100.00
2023-03-03T09:25:51.915Z,100.00
2023-03-03T09:28:30.251Z,100.00
2023-03-03T09:31:02.888Z,100.00
2023-03-03T09:33:40.375Z,100.00
2023-03-03T09:36:26.990Z,100.00
2023-03-03T09:38:55.799Z,100.00
2023-03-03T09:41:31.537Z,100.00
2023-03-03T09:44:27.730Z,100.00
2023-03-03T09:47:31.102Z,100.00
2023-03-03T09:50:26.536Z,100.00
2023-03-03T09:53:28.544Z,100.00
2023-03-03T09:56:19.374Z,99.58
2023-03-03T09:59:16.095Z,99.66
2023-03-03T10:01:59.070Z,98.99
2023-03-03T10:04:47.432Z,99.19
2023-03-03T10:07:39.311Z,98.76
2023-03-03T10:10:30.978Z,97.96
2023-03-03T10:13:13.234Z,97.05
2023-03-03T10:15:47.787Z,96.26
2023-03-03T10:18:29.345Z,96.29
2023-03-03T10:21:09.828Z,93.23
2023-03-03T10:23:52.012Z,92.09
2023-03-03T10:27:12.379Z,90.84
2023-03-03T10:30:36.852Z,90.30
2023-03-03T10:33:24.990Z,90.72
2023-03-03T10:36:07.400Z,88.63
2023-03-03T10:38:55.622Z,87.27
2023-03-03T10:41:32.628Z,86.49
2023-03-03T10:44:17.305Z,85.33
2023-03-03T10:46:52.038Z,85.69
2023-03-03T10:49:48.154Z,85.65
2023-03-03T10:52:36.271Z,83.98
2023-03-03T10:55:26.424Z,85.09
2023-03-03T10:58:20.722Z,85.12
2023-03-03T11:00:56.421Z,84.52
2023-03-03T11:03:46.649Z,85.19
2023-03-03T11:06:15.970Z,85.23
2023-03-03T11:09:24.368Z,84.23
2023-03-03T11:11:59.863Z,84.21
2023-03-03T11:14:47.530Z,84.54
2023-03-03T11:17:43.335Z,83.98
2023-03-03T11:20:28.371Z,84.22
2023-03-03T11:23:17.996Z,84.17
2023-03-03T11:25:55.534Z,83.39
2023-03-03T11:28:37.587Z,81.86
2023-03-03T11:31:33.015Z,80.79
2023-03-03T11:34:17.958Z,79.89
2023-03-03T11:36:49.280Z,79.03
2023-03-03T11:39:23.913Z,79.39
2023-03-03T11:42:23.637Z,77.60
2023-03-03T11:44:56.364Z,75.96
2023-03-03T11:47:52.580Z,76.54
2023-03-03T11:50:48.382Z,77.59
2023-03-03T11:53:40.115Z,77.50
2023-03-03T11:56:19.631Z,78.10
2023-03-03T11:59:09.612Z,76.73
2023-03-03T12:02:01.458Z,76.57
2023-03-03T12:04:40.809Z,72.94
2023-03-03T12:07:19.000Z,73.16
2023-03-03T12:10:02.885Z,71.36
2023-03-03T12:12:34.606Z,71.57
2023-03-03T12:15:20.117Z,71.91
2023-03-03T12:18:10.879Z,71.59
2023-03-03T12:21:03.182Z,70.62
2023-03-03T12:23:54.513Z,69.73
2023-03-03T12:26:44.168Z,69.19
2023-03-03T12:29:32.848Z,69.73
2023-03-03T12:32:21.679Z,71.15
2023-03-03T12:34:58.696Z,71.27
2023-03-03T12:37:49.848Z,72.01
2023-03-03T12:40:30.352Z,72.12
2023-03-03T12:43:18.600Z,71.94
2023-03-03T12:46:07.118Z,70.21
2023-03-03T12:48:44.244Z,69.21
2023-03-03T12:51:22.949Z,68.82
2023-03-03T12:54:10.741Z,69.12
2023-03-03T12:56:54.832Z,67.60
2023-03-03T12:59:45.311Z,67.08
2023-03-03T13:02:35.205Z,67.43
2023-03-03T13:05:28.112Z,69.75
2023-03-03T13:08:31.388Z,71.16
2023-03-03T13:11:23.627Z,72.23
2023-03-03T13:14:11.276Z,72.34
2023-03-03T13:16:53.882Z,73.08
2023-03-03T13:19:44.107Z,73.27
2023-03-03T13:22:49.189Z,73.33
2023-03-03T13:25:26.681Z,73.29
2023-03-03T13:28:00.871Z,72.02
2023-03-03T13:30:33.212Z,70.66
2023-03-03T13:33:09.039Z,71.12
2023-03-03T13:35:38.416Z,70.54
2023-03-03T13:38:06.476Z,70.80
2023-03-03T13:40:46.240Z,70.83
2023-03-03T13:43:54.896Z,72.64
2023-03-03T13:46:39.496Z,71.95
2023-03-03T13:49:18.820Z,72.08
2023-03-03T13:51:57.148Z,72.41
2023-03-03T13:54:44.778Z,73.05
2023-03-03T13:57:23.286Z,73.64
2023-03-03T14:00:27.915Z,72.57
2023-03-03T14:02:57.043Z,72.38
2023-03-03T14:05:42.862Z,72.04
2023-03-03T14:08:15.313Z,72.21
2023-03-03T14:10:54.190Z,71.76
2023-03-03T14:13:31.585Z,72.12
2023-03-03T14:16:21.925Z,72.38
2023-03-03T14:18:57.210Z,71.64
2023-03-03T14:21:29.980Z,70.41
2023-03-03T14:24:14.986Z,70.35
2023-03-03T14:26:50.003Z,69.95
2023-03-03T14:29:22.807Z,69.79
2023-03-03T14:31:49.379Z,68.28
2023-03-03T14:34:29.934Z,68.76
2023-03-03T14:37:20.874Z,68.66
2023-03-03T14:40:14.649Z,69.08
2023-03-03T14:42:54.839Z,67.97
2023-03-03T14:45:31.632Z,68.88
2023-03-03T14:47:59.796Z,67.63
2023-03-03T14:50:38.685Z,67.14
2023-03-03T14:53:30.816Z,67.17
2023-03-03T14:56:15.652Z,66.56
2023-03-03T14:58:42.755Z,67.18
2023-03-03T15:01:27.675Z,67.53
2023-03-03T15:04:03.477Z,68.62
2023-03-03T15:06:46.898Z,68.58
2023-03-03T15:09:35.729Z,68.69
2023-03-03T15:12:16.925Z,68.88
2023-03-03T15:14:47.245Z,69.30
2023-03-03T15:17:27.078Z,69.24
2023-03-03T15:20:14.790Z,70.25
2023-03-03T15:23:08.865Z,69.67
2023-03-03T15:25:49.127Z,69.84
2023-03-03T15:28:43.487Z,69.73
2023-03-03T15:31:12.919Z,69.14
2023-03-03T15:33:39.423Z,70.06
2023-03-03T15:36:27.366Z,69.72
2023-03-03T15:39:24.044Z,70.03
2023-03-03T15:42:24.809Z,69.90
2023-03-03T15:45:09.850Z,69.99
2023-03-03T15:47:54.970Z,69.85
2023-03-03T15:50:32.166Z,69.79
2023-03-03T15:53:05.478Z,69.13
2023-03-03T15:56:01.533Z,70.52
2023-03-03T15:58:46.274Z,70.04
2023-03-03T16:01:30.722Z,70.48
2023-03-03T16:04:31.381Z,68.87
2023-03-03T16:07:29.066Z,68.72
2023-03-03T16:10:12.167Z,69.13
2023-03-03T16:12:56.916Z,69.72
2023-03-03T16:15:35.534Z,67.18
2023-03-03T16:18:24.150Z,67.88
2023-03-03T16:21:15.416Z,68.88
2023-03-03T16:23:51.175Z,69.21
2023-03-03T16:26:36.533Z,69.18
2023-03-03T16:29:21.003Z,68.50
2023-03-03T16:31:50.581Z,69.20
2023-03-03T16:34:44.857Z,68.70
2023-03-03T16:37:34.704Z,69.39
2023-03-03T16:40:19.917Z,70.10
2023-03-03T16:42:49.386Z,69.94
2023-03-03T16:45:34.101Z,69.67
2023-03-03T16:48:17.012Z,69.73
2023-03-03T16:51:09.534Z,69.85
2023-03-03T16:54:05.492Z,70.29
2023-03-03T16:56:44.589Z,70.75
2023-03-03T16:59:36.146Z,70.46
2023-03-03T17:02:36.415Z,71.15
2023-03-03T17:05:12.206Z,71.18
2023-03-03T17:07:53.910Z,71.63
2023-03-03T17:10:33.645Z,71.59
2023-03-03T17:13:19.801Z,71.77
2023-03-03T17:16:01.486Z,72.37
2023-03-03T17:19:05.237Z,72.00
2023-03-03T17:21:31.711Z,72.33
2023-03-03T17:24:32.816Z,72.72
2023-03-03T17:27:21.060Z,72.85
2023-03-03T17:29:54.620Z,73.10
2023-03-03T17:33:02.769Z,73.03
2023-03-03T17:35:29.194Z,73.33
2023-03-03T17:38:18.717Z,72.93
2023-03-03T17:41:11.159Z,73.56
2023-03-03T17:43:44.697Z,73.19
2023-03-03T17:46:42.955Z,73.97
2023-03-03T17:49:33.591Z,73.91
2023-03-03T17:52:21.260Z,74.56
2023-03-03T17:55:17.372Z,74.43
2023-03-03T17:57:52.480Z,74.73
2023-03-03T18:00:48.222Z,75.50
2023-03-03T18:03:23.009Z,75.56
2023-03-03T18:06:07.365Z,75.36
2023-03-03T18:08:43.097Z,74.96
2023-03-03T18:11:34.545Z,75.77
2023-03-03T18:14:16.640Z,75.69
2023-03-03T18:17:28.222Z,76.05
2023-03-03T18:20:13.024Z,76.24
2023-03-03T18:22:53.382Z,75.99
2023-03-03T18:25:23.045Z,76.51
2023-03-03T18:28:01.455Z,76.10
2023-03-03T18:30:50.657Z,75.62
2023-03-03T18:33:55.769Z,76.20
2023-03-03T18:36:27.972Z,76.14
2023-03-03T18:38:56.565Z,76.44
2023-03-03T18:41:31.445Z,75.97
2023-03-03T18:44:27.532Z,76.34
2023-03-03T18:46:54.953Z,75.77
2023-03-03T18:49:47.320Z,76.06
2023-03-03T18:52:19.728Z,75.88
2023-03-03T18:55:09.760Z,76.44
2023-03-03T18:57:37.642Z,76.55
2023-03-03T19:00:28.403Z,76.88
2023-03-03T19:02:57.007Z,76.69
2023-03-03T19:05:49.570Z,77.02
2023-03-03T19:08:25.686Z,76.64
2023-03-03T19:10:56.855Z,77.03
2023-03-03T19:13:32.636Z,77.33
2023-03-03T19:16:01.420Z,77.89
2023-03-03T19:18:31.000Z,77.61
2023-03-03T19:21:28.346Z,77.32
2023-03-03T19:24:05.256Z,77.57
2023-03-03T19:26:45.453Z,77.19
2023-03-03T19:29:17.551Z,77.46
2023-03-03T19:31:52.947Z,77.13
2023-03-03T19:34:34.709Z,77.46
2023-03-03T19:37:07.111Z,77.69
2023-03-03T19:39:55.324Z,78.16
2023-03-03T19:42:40.001Z,77.86
2023-03-03T19:45:27.520Z,78.07
2023-03-03T19:47:58.212Z,77.30
2023-03-03T19:50:49.180Z,77.81
2023-03-03T19:54:03.814Z,77.72
2023-03-03T19:56:41.788Z,77.95
2023-03-03T19:59:37.094Z,77.84
2023-03-03T20:02:26.956Z,77.59
2023-03-03T20:05:19.777Z,77.84
2023-03-03T20:08:10.157Z,78.00
2023-03-03T20:10:54.816Z,77.84
2023-03-03T20:13:59.774Z,77.84
2023-03-03T20:16:52.363Z,77.85
2023-03-03T20:19:47.067Z,77.46
2023-03-03T20:22:27.116Z,77.81
2023-03-03T20:25:25.531Z,78.61
2023-03-03T20:28:01.710Z,79.04
2023-03-03T20:30:43.229Z,78.40
2023-03-03T20:33:38.528Z,78.76
2023-03-03T20:36:28.236Z,78.22
2023-03-03T20:39:07.794Z,78.87
2023-03-03T20:41:52.484Z,78.68
2023-03-03T20:45:04.226Z,78.43
2023-03-03T20:47:43.287Z,78.36
2023-03-03T20:50:20.134Z,78.54
2023-03-03T20:53:19.460Z,78.51
2023-03-03T20:56:16.236Z,78.97
2023-03-03T20:58:52.764Z,79.39
2023-03-03T21:01:33.359Z,79.60
2023-03-03T21:04:27.625Z,79.36
2023-03-03T21:06:54.429Z,79.80
2023-03-03T21:09:34.859Z,79.91
2023-03-03T21:12:22.667Z,79.98
2023-03-03T21:15:00.231Z,80.02
2023-03-03T21:17:29.960Z,79.83
2023-03-03T21:20:19.273Z,80.58
2023-03-03T21:22:45.907Z,80.29
2023-03-03T21:25:32.834Z,80.72
2023-03-03T21:28:17.449Z,80.44
2023-03-03T21:31:06.465Z,80.77
2023-03-03T21:33:50.890Z,80.71
2023-03-03T21:36:37.565Z,81.50
2023-03-03T21:39:46.868Z,81.24
2023-03-03T21:42:15.649Z,81.79
2023-03-03T21:44:44.649Z,81.92
2023-03-03T21:47:14.976Z,81.87
2023-03-03T21:49:42.773Z,82.16
2023-03-03T21:52:10.655Z,82.05
2023-03-03T21:54:37.112Z,82.45
2023-03-03T21:57:03.804Z,82.21
2023-03-03T21:59:30.542Z,82.35
2023-03-03T22:01:57.082Z,81.52
2023-03-03T22:04:23.756Z,81.54
2023-03-03T22:06:50.746Z,81.66
2023-03-03T22:09:17.245Z,81.76
2023-03-03T22:11:43.858Z,81.36
2023-03-03T22:14:10.638Z,81.63
2023-03-03T22:16:37.284Z,80.80
2023-03-03T22:19:04.853Z,81.65
2023-03-03T22:21:32.069Z,81.85
2023-03-03T22:23:58.983Z,80.99
2023-03-03T22:26:25.458Z,80.93
2023-03-03T22:28:52.030Z,81.26
2023-03-03T22:31:20.297Z,81.28
2023-03-03T22:33:48.106Z,80.68
2023-03-03T22:36:15.959Z,80.92
2023-03-03T22:38:42.779Z,80.35
2023-03-03T22:41:09.459Z,80.14
2023-03-03T22:43:36.033Z,79.80
2023-03-03T22:46:02.535Z,80.60
2023-03-03T22:48:29.563Z,80.26
2023-03-03T22:50:56.572Z,80.42
2023-03-03T22:53:24.221Z,80.78
2023-03-03T22:55:50.897Z,80.60
2023-03-03T22:58:19.703Z,80.58
2023-03-03T23:00:47.863Z,80.37
2023-03-03T23:03:14.706Z,80.95
2023-03-03T23:05:42.003Z,80.95
2023-03-03T23:08:11.283Z,80.69
2023-03-03T23:10:38.393Z,80.43
2023-03-03T23:13:05.146Z,80.37
2023-03-03T23:15:32.198Z,81.08
2023-03-03T23:17:58.788Z,80.50
2023-03-03T23:20:27.379Z,80.51
2023-03-03T23:22:54.101Z,80.68
2023-03-03T23:25:23.148Z,80.93
2023-03-03T23:27:49.969Z,80.88
2023-03-03T23:30:17.760Z,80.64
2023-03-03T23:32:44.819Z,81.24
2023-03-03T23:35:11.499Z,80.89
2023-03-03T23:37:37.935Z,80.74
2023-03-03T23:40:04.967Z,80.65
2023-03-03T23:42:31.435Z,80.17
2023-03-03T23:44:57.945Z,80.27
2023-03-03T23:47:25.164Z,79.68
2023-03-03T23:49:51.624Z,80.26
2023-03-03T23:52:20.980Z,80.28
2023-03-03T23:54:47.445Z,80.61
2023-03-03T23:57:13.958Z,80.32
2023-03-03T23:59:40.442Z,80.97
